Aeroporto :
LOGIN :

Iscrizione | Disclaimer

   EN    FR    IT 

 










Sommario :    VFR   VFR Marginale   IFR   IFR Intensivo   IFR Molto Intensivo
Visibilità : 
Base nubi : 
>= 8 km
>= 3000ft
5 / 8 km
1000 / 3000 ft
1500m / 5 km
500 / 1000 ft
800 / 1500m
200 / 500 ft
< 800m
< 200 ft
Simboli :   Temporali  Nebbia  Neve Forte  Precipitazioni Forti  Vento > 20 kt
SIGMETs :   Varie  Temporali  Ghiacco  Turbolenza  Onda orograficha  Ceneri Vulcaniche






- Altitudine del aeroporto : 768 ft
- Codice IATA : MXP


LIMC - Milano Malpensa

ULTIMO METAR :
  • 092350Z 36007KT CAVOK 05/01 Q1010 NOSIG

METARs OBSOLETI :
  • 092320Z 03009KT CAVOK 06/01 Q1010 NOSIG
  • 092250Z 03010KT CAVOK 05/02 Q1010 NOSIG
  • 092220Z 02009KT CAVOK 04/01 Q1009 NOSIG
  • 092150Z 36010KT CAVOK 04/02 Q1009 NOSIG
  • 092120Z 35009KT CAVOK 05/04 Q1008 NOSIG

TAF TAF LIMC
Valido dal 10 a 00 ore il 11 a 06 ore UTC


092300Z 1000/1106 35015KT CAVOK
BECMG 1011/1013 01005KT



MetMap, La meteo Aeronautica in un colpo d'occhio ! - Copyright ORBIFLY Dicembre 2007 - Disclaimer

ORBIFLY MET'MAP TEAM :

Programmazione e sviluppo : Alexandra Zaïnal
Concezione : Baudouin d'Aumeries
Aiuto per la programmazione : Marc-Olivier Méhu
Supporto tecnico e logistico : Manuel Goepfert
Aiuto per la traduzione : Arnaldo La Scala

Contatto : metmap@orbifly.com




FONTI E CREDITI :

   NOAA